Time;durP1;ratioP1;P1;durP2;ratioP2;P2;SDS_P1;SDS_P2;PMS_P1;PMS_P2;Temp;Humidity;BMP_temperature;BMP_pressure;BME280_temperature;BME280_humidity;BME280_pressure;Samples;Min_cycle;Max_cycle;Signal;HPM_P1;HPM_P2
2021/06/28 00:02:01;;;;;;;;;;;;;;;18.26;72.12;98308.13;1747004;81;20856;-88
2021/06/28 00:04:27;;;;;;;;;;;;;;;18.35;72.26;98297.89;1749100;81;21197;-88
2021/06/28 00:06:53;;;;;;;;;;;;;;;18.45;72.37;98299.56;1744216;81;20865;-88
2021/06/28 00:09:25;;;;;;;;;;;;;;;18.53;72.46;98301.77;1750556;81;20819;-87
2021/06/28 00:11:51;;;;;;;;;;;;;;;18.56;72.53;98301.47;1746046;81;24786;-88
2021/06/28 00:14:17;;;;;;;;;;;;;;;18.55;72.56;98296.31;1748556;81;20832;-88
2021/06/28 00:16:46;;;;;;;;;;;;;;;18.56;72.60;98296.17;1751253;81;25960;-88
2021/06/28 00:19:12;;;;;;;;;;;;;;;18.60;72.62;98301.47;1743648;81;24535;-88
2021/06/28 00:21:39;;;;;;;;;;;;;;;18.48;72.64;98297.45;1736173;81;20236;-88
2021/06/28 00:24:06;;;;;;;;;;;;;;;18.33;72.64;98293.72;1731281;81;25660;-87
2021/06/28 00:26:33;;;;;;;;;;;;;;;18.20;72.67;98300.80;1732429;82;21737;-87
2021/06/28 00:28:59;;;;;;;;;;;;;;;18.08;72.73;98301.22;1730649;82;25984;-87
2021/06/28 00:31:25;;;;;;;;;;;;;;;17.93;72.78;98303.14;1703587;82;20313;-88
2021/06/28 00:33:51;;;;;;;;;;;;;;;17.85;72.86;98299.11;1733570;82;20266;-88
2021/06/28 00:36:17;;;;;;;;;;;;;;;17.86;72.99;98303.91;1728476;82;20507;-88
2021/06/28 00:38:43;;;;;;;;;;;;;;;17.96;73.13;98298.02;1726938;82;20237;-88
2021/06/28 00:41:09;;;;;;;;;;;;;;;18.06;73.25;98304.52;1729338;82;21094;-88
2021/06/28 00:43:35;;;;;;;;;;;;;;;18.13;73.35;98302.91;1728127;82;24473;-87
2021/06/28 00:46:07;;;;;;;;;;;;;;;18.16;73.43;98305.26;1728162;82;20326;-87
2021/06/28 00:48:33;;;;;;;;;;;;;;;18.14;73.48;98304.08;1732429;82;24778;-88
2021/06/28 00:50:59;;;;;;;;;;;;;;;18.16;73.56;98299.47;1732382;82;22017;-87
2021/06/28 00:53:25;;;;;;;;;;;;;;;18.12;73.61;98303.89;1730415;82;21017;-87
2021/06/28 00:55:52;;;;;;;;;;;;;;;17.98;73.64;98300.02;1733109;82;24425;-88
2021/06/28 00:58:23;;;;;;;;;;;;;;;17.95;73.69;98300.31;1730911;82;20168;-87
2021/06/28 01:00:46;;;;;;;;;;;;;;;18.00;73.78;98298.05;1724678;82;24823;-88
2021/06/28 01:03:12;;;;;;;;;;;;;;;18.03;73.83;98293.76;1730486;82;22043;-88
2021/06/28 01:05:40;;;;;;;;;;;;;;;18.05;73.90;98298.91;1727846;82;21854;-88
2021/06/28 01:08:09;;;;;;;;;;;;;;;18.02;73.95;98295.23;1726792;82;24592;-88
2021/06/28 01:10:37;;;;;;;;;;;;;;;17.96;74.00;98301.49;1730442;82;20243;-87
2021/06/28 01:13:04;;;;;;;;;;;;;;;17.84;74.05;98301.41;1732033;82;24777;-87
2021/06/28 01:15:30;;;;;;;;;;;;;;;17.73;74.06;98295.57;1732758;82;21619;-87
2021/06/28 01:17:56;;;;;;;;;;;;;;;17.59;74.12;98291.63;1726528;82;26002;-87
2021/06/28 01:20:24;;;;;;;;;;;;;;;17.50;74.16;98292.07;1728090;82;24616;-88
2021/06/28 01:22:52;;;;;;;;;;;;;;;17.42;74.23;98284.55;1733136;82;20200;-87
2021/06/28 01:25:19;;;;;;;;;;;;;;;17.46;74.35;98279.28;1728991;81;26718;-87
2021/06/28 01:27:46;;;;;;;;;;;;;;;17.62;74.50;98283.91;1734477;82;23898;-87
2021/06/28 01:30:14;;;;;;;;;;;;;;;17.63;74.61;98281.09;1728954;82;26077;-88
2021/06/28 01:32:41;;;;;;;;;;;;;;;17.69;74.69;98283.12;1731024;82;24465;-88
2021/06/28 01:35:08;;;;;;;;;;;;;;;17.72;74.77;98276.20;1731089;82;20456;-88
2021/06/28 01:37:34;;;;;;;;;;;;;;;17.77;74.81;98277.89;1726935;82;24789;-87
2021/06/28 01:40:03;;;;;;;;;;;;;;;17.85;74.87;98277.09;1731386;82;20902;-88
2021/06/28 01:42:29;;;;;;;;;;;;;;;17.87;74.91;98277.78;1730975;82;25999;-88
2021/06/28 01:44:55;;;;;;;;;;;;;;;17.87;74.92;98281.75;1732469;82;20330;-88
2021/06/28 01:47:22;;;;;;;;;;;;;;;17.85;74.94;98283.22;1733222;82;20416;-88
2021/06/28 01:49:48;;;;;;;;;;;;;;;17.84;74.97;98284.20;1725474;82;25594;-87
2021/06/28 01:52:14;;;;;;;;;;;;;;;17.84;75.01;98280.23;1731536;82;20920;-88
2021/06/28 01:54:40;;;;;;;;;;;;;;;17.69;75.01;98276.50;1728948;82;26008;-88
2021/06/28 01:57:06;;;;;;;;;;;;;;;17.53;75.02;98282.98;1730018;82;24536;-87
2021/06/28 01:59:34;;;;;;;;;;;;;;;17.39;75.04;98283.55;1726527;82;20230;-87
2021/06/28 02:02:05;;;;;;;;;;;;;;;17.26;75.07;98281.28;1729273;82;24994;-88
2021/06/28 02:04:31;;;;;;;;;;;;;;;17.15;75.10;98279.70;1732603;82;21995;-88
2021/06/28 02:06:58;;;;;;;;;;;;;;;17.06;75.15;98284.59;1730002;82;26031;-87
2021/06/28 02:09:24;;;;;;;;;;;;;;;17.17;75.29;98285.34;1727488;82;24479;-88
2021/06/28 02:11:51;;;;;;;;;;;;;;;17.32;75.40;98281.16;1730323;82;20219;-88
2021/06/28 02:14:17;;;;;;;;;;;;;;;17.43;75.49;98287.05;1731306;82;24819;-88
2021/06/28 02:16:47;;;;;;;;;;;;;;;17.34;75.54;98287.14;1722510;82;22038;-88
2021/06/28 02:19:14;;;;;;;;;;;;;;;17.20;75.56;98288.98;1731010;82;26031;-87
2021/06/28 02:21:41;;;;;;;;;;;;;;;17.08;75.57;98286.58;1731728;82;24612;-87
2021/06/28 02:24:07;;;;;;;;;;;;;;;17.01;75.63;98287.34;1737751;82;20294;-88
2021/06/28 02:26:33;;;;;;;;;;;;;;;16.99;75.72;98278.72;1715011;82;24741;-88
2021/06/28 02:28:59;;;;;;;;;;;;;;;17.08;75.84;98278.64;1741716;82;22049;-87
2021/06/28 02:31:29;;;;;;;;;;;;;;;17.19;75.91;98278.06;1744629;82;26020;-88
2021/06/28 02:33:59;;;;;;;;;;;;;;;17.34;76.02;98283.17;1742629;82;24502;-88
2021/06/28 02:36:26;;;;;;;;;;;;;;;17.39;76.07;98285.70;1739857;82;20246;-87
2021/06/28 02:38:54;;;;;;;;;;;;;;;17.24;76.09;98286.40;1739781;82;25503;-87
2021/06/28 02:41:20;;;;;;;;;;;;;;;17.10;76.10;98285.11;1741612;82;22080;-87
2021/06/28 02:43:47;;;;;;;;;;;;;;;16.97;76.09;98282.83;1742095;82;26276;-87
2021/06/28 02:46:14;;;;;;;;;;;;;;;16.89;76.13;98282.77;1739343;81;24390;-88
2021/06/28 02:48:40;;;;;;;;;;;;;;;16.83;76.17;98284.69;1743780;82;20191;-87
2021/06/28 02:51:08;;;;;;;;;;;;;;;16.78;76.22;98290.08;1740240;82;24855;-87
2021/06/28 02:53:34;;;;;;;;;;;;;;;16.72;76.32;98285.73;1741259;82;22827;-88
2021/06/28 02:56:15;;;;;;;;;;;;;;;16.68;76.43;98287.02;1737806;82;25533;-88
2021/06/28 02:58:46;;;;;;;;;;;;;;;16.73;76.52;98294.50;1737036;82;25283;-87
2021/06/28 03:01:14;;;;;;;;;;;;;;;16.78;76.66;98288.76;1739113;82;21326;-87
2021/06/28 03:03:40;;;;;;;;;;;;;;;16.73;76.73;98287.89;1742437;81;24814;-88
2021/06/28 03:06:06;;;;;;;;;;;;;;;16.70;76.80;98290.33;1739111;82;22085;-88
2021/06/28 03:08:32;;;;;;;;;;;;;;;16.69;76.86;98293.14;1737152;82;21007;-87
2021/06/28 03:11:01;;;;;;;;;;;;;;;16.82;76.95;98286.15;1738473;82;20272;-87
2021/06/28 03:13:26;;;;;;;;;;;;;;;17.02;77.08;98286.37;1737673;82;20228;-87
2021/06/28 03:15:52;;;;;;;;;;;;;;;17.19;77.19;98279.39;1740339;82;20772;-87
2021/06/28 03:18:18;;;;;;;;;;;;;;;17.15;77.24;98286.31;1738472;82;20281;-87
2021/06/28 03:20:44;;;;;;;;;;;;;;;17.18;77.29;98289.16;1739563;82;21029;-87
2021/06/28 03:23:10;;;;;;;;;;;;;;;17.24;77.35;98291.69;1747881;81;20253;-87
2021/06/28 03:25:36;;;;;;;;;;;;;;;17.31;77.39;98289.59;1748991;81;20198;-88
2021/06/28 03:28:02;;;;;;;;;;;;;;;17.38;77.45;98289.33;1748711;81;20275;-87
2021/06/28 03:30:28;;;;;;;;;;;;;;;17.48;77.47;98293.19;1743904;81;21954;-87
2021/06/28 03:32:54;;;;;;;;;;;;;;;17.62;77.51;98286.56;1747854;81;26107;-87
2021/06/28 03:35:20;;;;;;;;;;;;;;;17.77;77.54;98288.48;1749456;81;20900;-87
2021/06/28 03:37:46;;;;;;;;;;;;;;;17.93;77.55;98284.61;1749891;81;20296;-87
2021/06/28 03:40:13;;;;;;;;;;;;;;;17.99;77.52;98277.85;1748921;81;24772;-87
2021/06/28 03:42:39;;;;;;;;;;;;;;;18.07;77.48;98289.80;1744338;81;22072;-87
2021/06/28 03:45:07;;;;;;;;;;;;;;;18.01;77.43;98282.48;1750074;81;25985;-87
2021/06/28 03:47:33;;;;;;;;;;;;;;;17.89;77.37;98283.76;1715209;81;24167;-87
2021/06/28 03:49:59;;;;;;;;;;;;;;;17.92;77.35;98278.97;1746199;81;20247;-88
2021/06/28 03:52:25;;;;;;;;;;;;;;;17.95;77.29;98283.10;1742193;81;25560;-87
2021/06/28 03:54:51;;;;;;;;;;;;;;;17.98;77.25;98281.48;1748568;81;20843;-88
2021/06/28 03:57:17;;;;;;;;;;;;;;;18.09;77.24;98280.38;1748228;81;20968;-87
2021/06/28 03:59:44;;;;;;;;;;;;;;;18.27;77.33;98277.16;1749286;81;38541;-87
2021/06/28 04:02:10;;;;;;;;;;;;;;;18.48;77.39;98280.22;1751198;81;20216;-87
2021/06/28 04:04:36;;;;;;;;;;;;;;;18.67;77.46;98279.97;1747397;81;20518;-87
2021/06/28 04:07:03;;;;;;;;;;;;;;;18.86;77.49;98280.69;1718574;81;23143;-88
2021/06/28 04:09:29;;;;;;;;;;;;;;;18.99;77.50;98274.39;1740825;81;26052;-88
2021/06/28 04:11:55;;;;;;;;;;;;;;;19.09;77.50;98277.73;1746178;81;20265;-87
2021/06/28 04:14:21;;;;;;;;;;;;;;;19.22;77.44;98276.73;1747078;81;20333;-87
2021/06/28 04:16:46;;;;;;;;;;;;;;;19.39;77.42;98278.41;1716165;81;20246;-88
2021/06/28 04:19:12;;;;;;;;;;;;;;;19.53;77.34;98280.41;1747922;81;20227;-87
2021/06/28 04:21:38;;;;;;;;;;;;;;;19.57;77.26;98288.88;1741189;81;21037;-87
2021/06/28 04:24:05;;;;;;;;;;;;;;;19.60;77.18;98288.04;1741696;81;20373;-87
2021/06/28 04:26:31;;;;;;;;;;;;;;;19.73;77.10;98286.70;1738202;82;20286;-87
2021/06/28 04:28:58;;;;;;;;;;;;;;;19.83;76.99;98285.52;1739453;82;24814;-87
2021/06/28 04:31:25;;;;;;;;;;;;;;;19.97;76.93;98289.30;1741553;82;21987;-87
2021/06/28 04:33:51;;;;;;;;;;;;;;;20.01;76.78;98289.31;1743362;82;25986;-88
2021/06/28 04:36:17;;;;;;;;;;;;;;;19.99;76.66;98289.47;1741035;82;24482;-87
2021/06/28 04:38:43;;;;;;;;;;;;;;;19.94;76.51;98297.12;1741382;82;20262;-87
2021/06/28 04:41:10;;;;;;;;;;;;;;;19.81;76.36;98295.48;1742007;82;24830;-88
2021/06/28 04:43:36;;;;;;;;;;;;;;;19.73;76.30;98296.00;1734980;82;21974;-87
2021/06/28 04:46:01;;;;;;;;;;;;;;;19.69;76.24;98306.14;1742465;82;21010;-87
2021/06/28 04:48:27;;;;;;;;;;;;;;;19.70;76.23;98305.61;1741402;82;20950;-87
2021/06/28 04:50:53;;;;;;;;;;;;;;;19.74;76.25;98305.62;1743289;82;20293;-87
2021/06/28 04:53:19;;;;;;;;;;;;;;;19.80;76.25;98301.78;1715783;82;20941;-87
2021/06/28 04:55:45;;;;;;;;;;;;;;;19.94;76.31;98296.29;1741449;82;20254;-88
2021/06/28 04:58:17;;;;;;;;;;;;;;;20.18;76.34;98301.55;1740221;81;21118;-88
2021/06/28 05:00:44;;;;;;;;;;;;;;;20.39;76.37;98298.35;1739260;82;24014;-88
2021/06/28 05:03:10;;;;;;;;;;;;;;;20.37;76.28;98303.00;1738065;82;20176;-87
2021/06/28 05:05:36;;;;;;;;;;;;;;;20.35;76.19;98301.00;1745326;82;20819;-88
2021/06/28 05:08:02;;;;;;;;;;;;;;;20.35;76.10;98304.48;1745302;82;20242;-87
2021/06/28 05:10:28;;;;;;;;;;;;;;;20.33;76.07;98299.87;1739988;82;26120;-87
2021/06/28 05:12:54;;;;;;;;;;;;;;;20.36;76.01;98306.66;1742658;82;20261;-88
2021/06/28 05:15:20;;;;;;;;;;;;;;;20.36;75.99;98305.33;1741332;82;20234;-88
2021/06/28 05:17:46;;;;;;;;;;;;;;;20.37;76.01;98310.97;1746057;82;20787;-88
2021/06/28 05:20:13;;;;;;;;;;;;;;;20.41;76.04;98309.63;1738004;82;22043;-88
2021/06/28 05:22:40;;;;;;;;;;;;;;;20.42;76.04;98300.16;1740635;81;27027;-87
2021/06/28 05:25:07;;;;;;;;;;;;;;;20.46;76.06;98300.13;1748750;81;23998;-88
2021/06/28 05:27:34;;;;;;;;;;;;;;;20.48;76.04;98308.44;1748484;81;20194;-88
2021/06/28 05:30:02;;;;;;;;;;;;;;;20.46;75.98;98307.27;1743687;81;25739;-88
2021/06/28 05:32:28;;;;;;;;;;;;;;;20.49;75.95;98302.13;1746373;81;22247;-88
2021/06/28 05:34:56;;;;;;;;;;;;;;;20.52;75.90;98303.92;1714887;81;20972;-88
2021/06/28 05:37:22;;;;;;;;;;;;;;;20.53;75.84;98307.42;1755190;81;25167;-88
2021/06/28 05:39:48;;;;;;;;;;;;;;;20.51;75.79;98308.11;1747744;81;20174;-87
2021/06/28 05:42:14;;;;;;;;;;;;;;;20.54;75.77;98311.24;1746015;81;20389;-88
2021/06/28 05:44:41;;;;;;;;;;;;;;;20.58;75.80;98309.88;1743905;81;22099;-88
2021/06/28 05:47:07;;;;;;;;;;;;;;;20.62;75.84;98311.72;1717942;81;25912;-88
2021/06/28 05:49:37;;;;;;;;;;;;;;;20.61;75.77;98316.70;1747313;81;25050;-88
2021/06/28 05:52:02;;;;;;;;;;;;;;;20.63;75.73;98315.52;1749472;81;21144;-88
2021/06/28 05:54:28;;;;;;;;;;;;;;;20.70;75.72;98320.97;1742154;81;24930;-88
2021/06/28 05:56:54;;;;;;;;;;;;;;;20.77;75.77;98321.44;1750168;81;20241;-88
2021/06/28 05:59:20;;;;;;;;;;;;;;;20.81;75.79;98328.06;1746697;81;21158;-88
2021/06/28 06:01:46;;;;;;;;;;;;;;;20.86;75.85;98328.87;1741145;81;20239;-88
2021/06/28 06:04:14;;;;;;;;;;;;;;;20.84;75.89;98326.38;1746729;81;20329;-88
2021/06/28 06:06:43;;;;;;;;;;;;;;;20.84;75.88;98327.70;1749735;81;24759;-88
2021/06/28 06:09:09;;;;;;;;;;;;;;;20.88;75.90;98325.55;1748387;81;22024;-87
2021/06/28 06:11:36;;;;;;;;;;;;;;;20.89;75.85;98332.00;1747955;81;26594;-88
2021/06/28 06:14:02;;;;;;;;;;;;;;;20.93;75.83;98330.33;1744090;81;20273;-88
2021/06/28 06:16:28;;;;;;;;;;;;;;;20.95;75.83;98331.00;1743226;81;20521;-88
2021/06/28 06:18:54;;;;;;;;;;;;;;;20.98;75.73;98334.63;1745339;81;24778;-88
2021/06/28 06:21:21;;;;;;;;;;;;;;;21.06;75.69;98330.57;1749465;81;22654;-88
2021/06/28 06:23:48;;;;;;;;;;;;;;;21.10;75.63;98328.73;1719666;82;25925;-87
2021/06/28 06:26:14;;;;;;;;;;;;;;;21.10;75.56;98331.41;1751183;81;24428;-88
2021/06/28 06:28:40;;;;;;;;;;;;;;;21.13;75.51;98329.70;1749001;81;20297;-88
2021/06/28 06:31:06;;;;;;;;;;;;;;;21.20;75.47;98334.69;1749408;81;24850;-88
2021/06/28 06:33:32;;;;;;;;;;;;;;;21.25;75.39;98336.31;1747111;81;20226;-88
2021/06/28 06:35:58;;;;;;;;;;;;;;;21.28;75.28;98338.61;1749615;81;26124;-88
2021/06/28 06:38:24;;;;;;;;;;;;;;;21.35;75.20;98340.07;1748246;81;20966;-88
2021/06/28 06:40:52;;;;;;;;;;;;;;;21.34;75.07;98335.74;1751407;81;20233;-88
2021/06/28 06:43:22;;;;;;;;;;;;;;;21.38;75.00;98333.08;1748309;81;24721;-88
2021/06/28 06:45:48;;;;;;;;;;;;;;;21.48;75.00;98339.48;1750458;81;22016;-88
2021/06/28 06:48:14;;;;;;;;;;;;;;;21.57;74.97;98334.41;1750697;81;21038;-88
2021/06/28 06:50:40;;;;;;;;;;;;;;;21.62;74.95;98334.20;1749389;81;20230;-88
2021/06/28 06:53:07;;;;;;;;;;;;;;;21.64;74.80;98334.86;1747701;81;20446;-88
2021/06/28 06:55:34;;;;;;;;;;;;;;;21.64;74.67;98338.85;1744922;81;25604;-88
2021/06/28 06:58:01;;;;;;;;;;;;;;;21.64;74.58;98337.52;1749152;81;21980;-88
2021/06/28 07:00:27;;;;;;;;;;;;;;;21.67;74.41;98341.14;1747593;81;26174;-88
2021/06/28 07:02:54;;;;;;;;;;;;;;;21.75;74.33;98342.09;1751456;81;25728;-88
2021/06/28 07:05:20;;;;;;;;;;;;;;;21.82;74.37;98343.84;1748458;81;20477;-88
2021/06/28 07:07:47;;;;;;;;;;;;;;;21.87;74.31;98337.48;1751047;81;24716;-88
2021/06/28 07:10:14;;;;;;;;;;;;;;;21.97;74.29;98339.42;1748797;81;21954;-88
2021/06/28 07:12:41;;;;;;;;;;;;;;;22.08;74.24;98340.31;1746493;81;26048;-88
2021/06/28 07:15:09;;;;;;;;;;;;;;;22.13;74.12;98341.59;1750374;81;24397;-88
2021/06/28 07:17:35;;;;;;;;;;;;;;;22.18;74.01;98335.20;1749525;81;20263;-88
2021/06/28 07:20:01;;;;;;;;;;;;;;;22.22;73.87;98343.98;1750794;81;24839;-88
2021/06/28 07:22:27;;;;;;;;;;;;;;;22.32;73.74;98340.53;1748311;81;21945;-88
2021/06/28 07:24:53;;;;;;;;;;;;;;;22.37;73.58;98344.81;1744086;81;26698;-88
2021/06/28 07:27:19;;;;;;;;;;;;;;;22.44;73.42;98342.24;1751312;81;20277;-88
2021/06/28 07:29:45;;;;;;;;;;;;;;;22.47;73.25;98343.23;1747075;81;20340;-88
2021/06/28 07:32:11;;;;;;;;;;;;;;;22.56;73.11;98349.28;1750248;81;20216;-88
2021/06/28 07:34:37;;;;;;;;;;;;;;;22.61;73.00;98351.71;1750590;81;22077;-88
2021/06/28 07:37:03;;;;;;;;;;;;;;;22.71;72.90;98351.42;1748315;81;20989;-88
2021/06/28 07:39:29;;;;;;;;;;;;;;;22.78;72.79;98340.36;1745643;81;24503;-88
2021/06/28 07:41:55;;;;;;;;;;;;;;;22.89;72.65;98346.55;1746248;81;20314;-88
2021/06/28 07:44:23;;;;;;;;;;;;;;;23.00;72.53;98346.58;1743530;81;20759;-88
2021/06/28 07:46:49;;;;;;;;;;;;;;;23.12;72.49;98343.75;1748254;81;22932;-88
2021/06/28 07:49:15;;;;;;;;;;;;;;;23.16;72.26;98341.01;1744517;81;25997;-88
2021/06/28 07:51:42;;;;;;;;;;;;;;;23.23;72.05;98349.42;1746723;81;20341;-88
2021/06/28 07:54:08;;;;;;;;;;;;;;;23.33;71.92;98351.77;1746734;81;20199;-88
2021/06/28 07:56:35;;;;;;;;;;;;;;;23.43;71.80;98347.45;1744904;81;24815;-88
2021/06/28 07:59:01;;;;;;;;;;;;;;;23.53;71.68;98350.66;1750484;81;22069;-88
2021/06/28 08:01:28;;;;;;;;;;;;;;;23.61;71.48;98351.88;1751175;81;26057;-88
2021/06/28 08:03:55;;;;;;;;;;;;;;;23.65;71.06;98350.47;1743292;81;24435;-88
2021/06/28 08:06:21;;;;;;;;;;;;;;;23.72;70.78;98346.02;1745980;81;20232;-88
2021/06/28 08:08:50;;;;;;;;;;;;;;;23.85;70.65;98346.61;1717248;82;24679;-88
2021/06/28 08:11:18;;;;;;;;;;;;;;;23.97;70.61;98347.75;1745704;81;21958;-88
2021/06/28 08:13:46;;;;;;;;;;;;;;;24.13;70.49;98357.64;1747871;81;26049;-85
2021/06/28 08:16:14;;;;;;;;;;;;;;;24.20;70.19;98354.22;1742913;81;24461;-85
2021/06/28 08:18:42;;;;;;;;;;;;;;;24.23;69.66;98360.50;1751303;81;20525;-85
2021/06/28 08:21:07;;;;;;;;;;;;;;;24.24;69.05;98359.48;1751946;81;25375;-85
2021/06/28 08:23:33;;;;;;;;;;;;;;;24.27;68.49;98361.79;1751673;81;20235;-85
2021/06/28 08:25:59;;;;;;;;;;;;;;;24.29;68.00;98363.23;1743597;81;21051;-85
2021/06/28 08:28:25;;;;;;;;;;;;;;;24.35;67.68;98362.95;1750001;81;20285;-85
2021/06/28 08:30:52;;;;;;;;;;;;;;;24.35;67.26;98362.45;1740836;81;20241;-85
2021/06/28 08:33:18;;;;;;;;;;;;;;;24.43;67.07;98356.95;1746590;81;24858;-85
2021/06/28 08:35:44;;;;;;;;;;;;;;;24.52;66.80;98358.95;1750199;81;21878;-85
2021/06/28 08:38:10;;;;;;;;;;;;;;;24.58;66.40;98360.33;1744912;81;26591;-85
2021/06/28 08:40:37;;;;;;;;;;;;;;;24.67;66.05;98358.81;1747948;81;20300;-85
2021/06/28 08:43:04;;;;;;;;;;;;;;;24.76;65.81;98358.98;1750377;81;20222;-85
2021/06/28 08:45:31;;;;;;;;;;;;;;;24.84;65.60;98353.44;1750086;81;24801;-85
2021/06/28 08:47:57;;;;;;;;;;;;;;;24.94;65.42;98360.61;1746162;81;21938;-85
2021/06/28 08:50:23;;;;;;;;;;;;;;;24.98;64.94;98368.59;1743506;81;26656;-85
2021/06/28 08:52:49;;;;;;;;;;;;;;;25.08;64.74;98360.99;1741670;81;24481;-85
2021/06/28 08:55:15;;;;;;;;;;;;;;;25.17;64.46;98362.45;1744150;81;20916;-85
2021/06/28 08:57:41;;;;;;;;;;;;;;;25.23;64.12;98360.83;1747361;81;20214;-85
2021/06/28 09:00:09;;;;;;;;;;;;;;;25.24;63.26;98360.63;1746213;81;22070;-85
2021/06/28 09:02:39;;;;;;;;;;;;;;;25.32;62.82;98361.77;1751939;81;22165;-85
2021/06/28 09:05:07;;;;;;;;;;;;;;;25.38;62.35;98356.11;1746364;81;24438;-85
2021/06/28 09:07:32;;;;;;;;;;;;;;;25.45;62.08;98356.13;1747093;81;20482;-85
2021/06/28 09:09:59;;;;;;;;;;;;;;;25.52;61.51;98351.62;1744814;81;20870;-85
2021/06/28 09:12:25;;;;;;;;;;;;;;;25.54;60.84;98353.05;1743168;81;22023;-85
2021/06/28 09:14:55;;;;;;;;;;;;;;;25.66;60.52;98358.66;1749498;81;25865;-85
2021/06/28 09:17:36;;;;;;;;;;;;;;;25.69;60.16;98359.07;1742867;81;24528;-85
2021/06/28 09:20:13;;;;;;;;;;;;;;;25.75;59.78;98352.06;1746924;81;20524;-85
2021/06/28 09:22:39;;;;;;;;;;;;;;;25.74;59.03;98354.45;1752563;81;24668;-85
2021/06/28 09:25:07;;;;;;;;;;;;;;;25.69;58.16;98350.23;1754168;81;22060;-85
2021/06/28 09:27:35;;;;;;;;;;;;;;;25.75;57.88;98344.02;1755018;81;26050;-85
2021/06/28 09:30:03;;;;;;;;;;;;;;;25.82;57.68;98340.32;1753730;81;24448;-85
2021/06/28 09:32:29;;;;;;;;;;;;;;;25.90;57.46;98343.33;1751943;81;20191;-85
2021/06/28 09:34:57;;;;;;;;;;;;;;;25.92;57.03;98338.56;1753350;81;20289;-85
2021/06/28 09:37:25;;;;;;;;;;;;;;;25.98;56.71;98339.59;1753439;81;22863;-85
2021/06/28 09:39:52;;;;;;;;;;;;;;;26.04;56.50;98340.10;1752245;81;26030;-85
2021/06/28 09:42:21;;;;;;;;;;;;;;;26.09;56.18;98341.64;1752295;81;24449;-85
2021/06/28 09:44:58;;;;;;;;;;;;;;;26.08;55.70;98334.63;1754911;81;20292;-85
2021/06/28 09:47:26;;;;;;;;;;;;;;;26.15;55.48;98333.59;1751814;81;24202;-85
2021/06/28 09:50:00;;;;;;;;;;;;;;;26.18;54.97;98341.75;1753221;81;22064;-85
2021/06/28 09:52:30;;;;;;;;;;;;;;;26.23;54.63;98335.27;1754656;81;26650;-85
2021/06/28 09:54:58;;;;;;;;;;;;;;;26.27;54.25;98337.02;1754158;81;24513;-85
2021/06/28 09:57:24;;;;;;;;;;;;;;;26.34;54.05;98334.64;1753420;81;20203;-85
2021/06/28 09:59:50;;;;;;;;;;;;;;;26.49;53.94;98342.44;1757406;81;24748;-85
2021/06/28 10:02:19;;;;;;;;;;;;;;;26.60;53.65;98340.45;1749922;81;22951;-85
2021/06/28 10:05:02;;;;;;;;;;;;;;;26.73;53.38;98340.92;1751636;81;26058;-85
2021/06/28 10:07:31;;;;;;;;;;;;;;;26.80;53.20;98345.73;1747825;81;24464;-85
2021/06/28 10:10:07;;;;;;;;;;;;;;;26.81;52.99;98343.36;1749418;81;20320;-85
2021/06/28 10:12:34;;;;;;;;;;;;;;;26.83;52.86;98340.78;1749964;81;24907;-85
2021/06/28 10:15:00;;;;;;;;;;;;;;;26.84;52.70;98333.00;1754675;81;22078;-85
2021/06/28 10:17:26;;;;;;;;;;;;;;;26.92;52.63;98336.84;1750673;81;26191;-85
2021/06/28 10:19:52;;;;;;;;;;;;;;;26.97;52.36;98338.36;1745687;81;24528;-85
2021/06/28 10:22:18;;;;;;;;;;;;;;;27.09;52.37;98347.09;1755039;81;20353;-85
2021/06/28 10:24:44;;;;;;;;;;;;;;;27.22;52.29;98347.03;1745312;81;20725;-85
2021/06/28 10:27:10;;;;;;;;;;;;;;;27.30;52.02;98345.42;1739368;82;20242;-85
2021/06/28 10:29:36;;;;;;;;;;;;;;;27.39;52.03;98344.12;1742537;82;21804;-85
2021/06/28 10:32:06;;;;;;;;;;;;;;;27.35;51.72;98338.87;1741044;82;24393;-86
2021/06/28 10:34:32;;;;;;;;;;;;;;;27.26;51.36;98338.33;1746267;82;20467;-85
2021/06/28 10:37:00;;;;;;;;;;;;;;;27.12;50.92;98337.25;1740558;82;25470;-85
2021/06/28 10:39:27;;;;;;;;;;;;;;;27.12;50.77;98334.56;1737085;81;22064;-85
2021/06/28 10:41:54;;;;;;;;;;;;;;;27.25;50.75;98332.64;1741581;82;25999;-85
2021/06/28 10:44:22;;;;;;;;;;;;;;;27.41;50.89;98331.30;1743167;82;24504;-85
2021/06/28 10:46:50;;;;;;;;;;;;;;;27.49;50.88;98334.53;1736188;82;20489;-85
2021/06/28 10:49:17;;;;;;;;;;;;;;;27.53;50.87;98339.00;1742949;82;24703;-85
2021/06/28 10:51:46;;;;;;;;;;;;;;;27.54;50.75;98335.28;1737318;82;22818;-85
2021/06/28 10:54:15;;;;;;;;;;;;;;;27.55;50.48;98340.14;1743027;82;26051;-85
2021/06/28 10:56:43;;;;;;;;;;;;;;;27.45;50.14;98336.53;1740591;82;25185;-85
2021/06/28 10:59:17;;;;;;;;;;;;;;;27.38;49.92;98331.74;1735597;82;20211;-85
2021/06/28 11:01:57;;;;;;;;;;;;;;;27.36;49.65;98327.09;1740788;82;24744;-85
2021/06/28 11:04:25;;;;;;;;;;;;;;;27.26;49.18;98334.30;1743438;82;22042;-85
2021/06/28 11:07:02;;;;;;;;;;;;;;;27.17;48.81;98328.84;1740189;81;26038;-85
2021/06/28 11:09:30;;;;;;;;;;;;;;;27.25;48.77;98328.61;1735797;82;24450;-85
2021/06/28 11:11:56;;;;;;;;;;;;;;;27.33;48.72;98324.84;1737004;82;20524;-85
2021/06/28 11:14:25;;;;;;;;;;;;;;;27.42;48.65;98324.37;1743721;82;20686;-85
2021/06/28 11:17:08;;;;;;;;;;;;;;;27.51;48.66;98318.23;1742605;82;21961;-85
2021/06/28 11:19:52;;;;;;;;;;;;;;;27.58;48.55;98320.36;1741996;82;26713;-85
2021/06/28 11:22:30;;;;;;;;;;;;;;;27.64;48.35;98321.34;1743318;82;25266;-85
2021/06/28 11:24:57;;;;;;;;;;;;;;;27.76;48.19;98315.05;1737598;81;20156;-85
2021/06/28 11:27:23;;;;;;;;;;;;;;;27.73;47.92;98311.95;1740760;82;24952;-85
2021/06/28 11:29:51;;;;;;;;;;;;;;;27.81;47.89;98307.14;1744367;82;20230;-85
2021/06/28 11:32:28;;;;;;;;;;;;;;;27.93;47.88;98301.84;1736203;82;26077;-85
2021/06/28 11:34:55;;;;;;;;;;;;;;;27.81;47.36;98303.63;1739346;82;24518;-85
2021/06/28 11:37:21;;;;;;;;;;;;;;;27.77;47.08;98301.05;1744297;82;20291;-85
2021/06/28 11:39:54;;;;;;;;;;;;;;;27.75;46.86;98305.33;1745078;82;24842;-85
2021/06/28 11:42:30;;;;;;;;;;;;;;;27.77;46.68;98300.53;1739950;82;21542;-85
2021/06/28 11:44:57;;;;;;;;;;;;;;;27.78;46.57;98296.80;1752435;81;26137;-85
2021/06/28 11:47:39;;;;;;;;;;;;;;;27.81;46.51;98290.17;1728715;82;24495;-85
2021/06/28 11:50:25;;;;;;;;;;;;;;;27.94;46.61;98289.22;1720416;83;20627;-85
2021/06/28 11:52:53;;;;;;;;;;;;;;;27.71;45.95;98286.62;1713382;82;24239;-85
2021/06/28 11:55:19;;;;;;;;;;;;;;;27.63;45.92;98286.08;1732658;82;22003;-85
2021/06/28 11:57:52;;;;;;;;;;;;;;;27.68;45.87;98284.90;1738186;81;21791;-85
2021/06/28 12:00:18;;;;;;;;;;;;;;;27.69;45.65;98281.17;1732431;81;24428;-85
2021/06/28 12:02:44;;;;;;;;;;;;;;;27.66;45.40;98282.94;1750563;81;20534;-85
2021/06/28 12:05:11;;;;;;;;;;;;;;;27.65;45.18;98273.25;1732211;81;24875;-85
2021/06/28 12:07:37;;;;;;;;;;;;;;;27.60;44.90;98275.27;1716256;83;21973;-85
2021/06/28 12:10:04;;;;;;;;;;;;;;;27.63;44.86;98271.30;1754778;81;26781;-85
2021/06/28 12:12:30;;;;;;;;;;;;;;;27.60;44.73;98268.54;1735956;82;24472;-84
2021/06/28 12:14:56;;;;;;;;;;;;;;;27.60;44.66;98264.50;1736585;82;20285;-85
2021/06/28 12:17:23;;;;;;;;;;;;;;;27.56;44.49;98263.27;1719553;83;24841;-85
2021/06/28 12:19:50;;;;;;;;;;;;;;;27.53;44.36;98265.59;1750398;81;21985;-85
2021/06/28 12:22:18;;;;;;;;;;;;;;;27.58;44.38;98261.72;1737142;82;25508;-85
2021/06/28 12:24:44;;;;;;;;;;;;;;;27.62;44.34;98258.37;1742335;82;24546;-85
2021/06/28 12:27:12;;;;;;;;;;;;;;;27.62;44.10;98257.02;1733754;82;20227;-85
2021/06/28 12:29:39;;;;;;;;;;;;;;;27.59;43.97;98260.16;1730434;82;24835;-85
2021/06/28 12:32:13;;;;;;;;;;;;;;;27.58;43.91;98258.52;1741338;82;21988;-85
2021/06/28 12:34:41;;;;;;;;;;;;;;;27.68;43.94;98262.87;1736555;82;25993;-85
2021/06/28 12:37:07;;;;;;;;;;;;;;;27.83;43.99;98266.03;1739711;82;25170;-85
2021/06/28 12:39:33;;;;;;;;;;;;;;;27.87;43.80;98265.91;1740942;82;20286;-85
2021/06/28 12:42:13;;;;;;;;;;;;;;;27.99;43.73;98256.56;1734176;82;24906;-85
2021/06/28 12:44:40;;;;;;;;;;;;;;;28.08;43.66;98256.59;1736196;82;22154;-85
2021/06/28 12:47:06;;;;;;;;;;;;;;;28.13;43.55;98251.39;1732512;82;26029;-85
2021/06/28 12:49:34;;;;;;;;;;;;;;;28.17;43.33;98249.06;1730510;82;25188;-84